sensor_id;sensor_type;location;lat;lon;timestamp;temperature;humidity
13976;DHT22;7062;49.792;9.946;2023-05-07T00:02:06;16.70;99.90
13976;DHT22;7062;49.792;9.946;2023-05-07T00:04:32;16.80;99.90
13976;DHT22;7062;49.792;9.946;2023-05-07T00:07:02;16.80;99.90
13976;DHT22;7062;49.792;9.946;2023-05-07T00:09:28;16.90;99.90
13976;DHT22;7062;49.792;9.946;2023-05-07T00:11:53;16.80;99.90
13976;DHT22;7062;49.792;9.946;2023-05-07T00:14:19;16.80;99.90
13976;DHT22;7062;49.792;9.946;2023-05-07T00:16:46;16.90;99.90
13976;DHT22;7062;49.792;9.946;2023-05-07T00:19:12;16.90;99.90
13976;DHT22;7062;49.792;9.946;2023-05-07T00:21:37;16.80;99.90
13976;DHT22;7062;49.792;9.946;2023-05-07T00:24:03;16.90;99.90
13976;DHT22;7062;49.792;9.946;2023-05-07T00:26:29;16.80;99.90
13976;DHT22;7062;49.792;9.946;2023-05-07T00:28:54;16.80;99.90
13976;DHT22;7062;49.792;9.946;2023-05-07T00:31:20;16.70;99.90
13976;DHT22;7062;49.792;9.946;2023-05-07T00:33:46;16.70;99.90
13976;DHT22;7062;49.792;9.946;2023-05-07T00:36:12;16.60;99.90
13976;DHT22;7062;49.792;9.946;2023-05-07T00:38:37;16.60;99.90
13976;DHT22;7062;49.792;9.946;2023-05-07T00:41:03;16.60;99.90
13976;DHT22;7062;49.792;9.946;2023-05-07T00:43:29;16.70;99.90
13976;DHT22;7062;49.792;9.946;2023-05-07T00:45:55;16.70;99.90
13976;DHT22;7062;49.792;9.946;2023-05-07T00:48:21;16.70;99.90
13976;DHT22;7062;49.792;9.946;2023-05-07T00:50:46;16.70;99.90
13976;DHT22;7062;49.792;9.946;2023-05-07T00:53:13;16.60;99.90
13976;DHT22;7062;49.792;9.946;2023-05-07T00:55:39;16.60;99.90
13976;DHT22;7062;49.792;9.946;2023-05-07T00:58:06;16.60;99.90
13976;DHT22;7062;49.792;9.946;2023-05-07T01:00:32;16.50;99.90
13976;DHT22;7062;49.792;9.946;2023-05-07T01:02:58;16.70;99.90
13976;DHT22;7062;49.792;9.946;2023-05-07T01:05:24;16.40;99.90
13976;DHT22;7062;49.792;9.946;2023-05-07T01:07:52;16.40;99.90
13976;DHT22;7062;49.792;9.946;2023-05-07T01:10:19;16.40;99.90
13976;DHT22;7062;49.792;9.946;2023-05-07T01:12:45;16.30;99.90
13976;DHT22;7062;49.792;9.946;2023-05-07T01:15:12;16.20;99.90
13976;DHT22;7062;49.792;9.946;2023-05-07T01:17:40;16.00;99.90
13976;DHT22;7062;49.792;9.946;2023-05-07T01:20:07;16.00;99.90
13976;DHT22;7062;49.792;9.946;2023-05-07T01:22:37;16.00;99.90
13976;DHT22;7062;49.792;9.946;2023-05-07T01:25:03;16.00;99.90
13976;DHT22;7062;49.792;9.946;2023-05-07T01:27:29;16.00;99.90
13976;DHT22;7062;49.792;9.946;2023-05-07T01:29:55;16.00;99.90
13976;DHT22;7062;49.792;9.946;2023-05-07T01:32:28;16.10;99.90
13976;DHT22;7062;49.792;9.946;2023-05-07T01:34:55;16.00;99.90
13976;DHT22;7062;49.792;9.946;2023-05-07T01:37:21;15.90;99.90
13976;DHT22;7062;49.792;9.946;2023-05-07T01:39:48;15.80;99.90
13976;DHT22;7062;49.792;9.946;2023-05-07T01:42:13;15.80;99.90
13976;DHT22;7062;49.792;9.946;2023-05-07T01:44:39;15.70;99.90
13976;DHT22;7062;49.792;9.946;2023-05-07T01:47:05;15.60;99.90
13976;DHT22;7062;49.792;9.946;2023-05-07T01:49:31;15.60;99.90
13976;DHT22;7062;49.792;9.946;2023-05-07T01:51:58;15.60;99.90
13976;DHT22;7062;49.792;9.946;2023-05-07T01:54:27;15.50;99.90
13976;DHT22;7062;49.792;9.946;2023-05-07T01:56:53;15.50;99.90
13976;DHT22;7062;49.792;9.946;2023-05-07T01:59:19;15.50;99.90
13976;DHT22;7062;49.792;9.946;2023-05-07T02:01:44;15.50;99.90
13976;DHT22;7062;49.792;9.946;2023-05-07T02:04:10;15.40;99.90
13976;DHT22;7062;49.792;9.946;2023-05-07T02:06:36;15.40;99.90
13976;DHT22;7062;49.792;9.946;2023-05-07T02:09:01;15.40;99.90
13976;DHT22;7062;49.792;9.946;2023-05-07T02:11:27;15.40;99.90
13976;DHT22;7062;49.792;9.946;2023-05-07T02:13:52;15.40;99.90
13976;DHT22;7062;49.792;9.946;2023-05-07T02:16:18;15.40;99.90
13976;DHT22;7062;49.792;9.946;2023-05-07T02:18:45;15.40;99.90
13976;DHT22;7062;49.792;9.946;2023-05-07T02:21:10;15.40;99.90
13976;DHT22;7062;49.792;9.946;2023-05-07T02:23:36;15.40;99.90
13976;DHT22;7062;49.792;9.946;2023-05-07T02:26:04;15.50;99.90
13976;DHT22;7062;49.792;9.946;2023-05-07T02:28:30;15.40;99.90
13976;DHT22;7062;49.792;9.946;2023-05-07T02:30:55;15.40;99.90
13976;DHT22;7062;49.792;9.946;2023-05-07T02:33:23;15.40;99.90
13976;DHT22;7062;49.792;9.946;2023-05-07T02:35:49;15.40;99.90
13976;DHT22;7062;49.792;9.946;2023-05-07T02:38:17;15.50;99.90
13976;DHT22;7062;49.792;9.946;2023-05-07T02:40:43;15.60;99.90
13976;DHT22;7062;49.792;9.946;2023-05-07T02:43:09;15.50;99.90
13976;DHT22;7062;49.792;9.946;2023-05-07T02:45:35;15.50;99.90
13976;DHT22;7062;49.792;9.946;2023-05-07T02:48:03;15.40;99.90
13976;DHT22;7062;49.792;9.946;2023-05-07T02:50:29;15.40;99.90
13976;DHT22;7062;49.792;9.946;2023-05-07T02:52:55;15.50;99.90
13976;DHT22;7062;49.792;9.946;2023-05-07T02:55:21;15.50;99.90
13976;DHT22;7062;49.792;9.946;2023-05-07T02:57:46;15.60;99.90
13976;DHT22;7062;49.792;9.946;2023-05-07T03:00:17;15.50;99.90
13976;DHT22;7062;49.792;9.946;2023-05-07T03:02:44;15.50;99.90
13976;DHT22;7062;49.792;9.946;2023-05-07T03:05:10;15.40;99.90
13976;DHT22;7062;49.792;9.946;2023-05-07T03:07:36;15.30;99.90
13976;DHT22;7062;49.792;9.946;2023-05-07T03:10:03;15.20;99.90
13976;DHT22;7062;49.792;9.946;2023-05-07T03:12:29;15.30;99.90
13976;DHT22;7062;49.792;9.946;2023-05-07T03:14:55;15.30;99.90
13976;DHT22;7062;49.792;9.946;2023-05-07T03:17:21;15.30;99.90
13976;DHT22;7062;49.792;9.946;2023-05-07T03:19:46;15.30;99.90
13976;DHT22;7062;49.792;9.946;2023-05-07T03:22:12;15.30;99.90
13976;DHT22;7062;49.792;9.946;2023-05-07T03:24:38;15.40;99.90
13976;DHT22;7062;49.792;9.946;2023-05-07T03:27:03;15.40;99.90
13976;DHT22;7062;49.792;9.946;2023-05-07T03:29:29;15.40;99.90
13976;DHT22;7062;49.792;9.946;2023-05-07T03:31:55;15.30;99.90
13976;DHT22;7062;49.792;9.946;2023-05-07T03:34:20;15.40;99.90
13976;DHT22;7062;49.792;9.946;2023-05-07T03:36:50;15.50;99.90
13976;DHT22;7062;49.792;9.946;2023-05-07T03:39:16;15.60;99.90
13976;DHT22;7062;49.792;9.946;2023-05-07T03:41:41;15.60;99.90
13976;DHT22;7062;49.792;9.946;2023-05-07T03:44:07;15.60;99.90
13976;DHT22;7062;49.792;9.946;2023-05-07T03:46:33;15.60;99.90
13976;DHT22;7062;49.792;9.946;2023-05-07T03:48:59;15.50;99.90
13976;DHT22;7062;49.792;9.946;2023-05-07T03:51:25;15.30;99.90
13976;DHT22;7062;49.792;9.946;2023-05-07T03:53:51;15.30;99.90
13976;DHT22;7062;49.792;9.946;2023-05-07T03:56:22;15.30;99.90
13976;DHT22;7062;49.792;9.946;2023-05-07T03:58:48;15.30;99.90
13976;DHT22;7062;49.792;9.946;2023-05-07T04:01:14;15.30;99.90
13976;DHT22;7062;49.792;9.946;2023-05-07T04:03:40;15.30;99.90
13976;DHT22;7062;49.792;9.946;2023-05-07T04:06:05;15.40;99.90
13976;DHT22;7062;49.792;9.946;2023-05-07T04:08:31;15.30;99.90
13976;DHT22;7062;49.792;9.946;2023-05-07T04:10:58;15.20;99.90
13976;DHT22;7062;49.792;9.946;2023-05-07T04:13:24;15.20;99.90
13976;DHT22;7062;49.792;9.946;2023-05-07T04:15:50;15.20;99.90
13976;DHT22;7062;49.792;9.946;2023-05-07T04:18:16;15.20;99.90
13976;DHT22;7062;49.792;9.946;2023-05-07T04:20:41;15.30;99.90
13976;DHT22;7062;49.792;9.946;2023-05-07T04:23:07;15.40;99.90
13976;DHT22;7062;49.792;9.946;2023-05-07T04:25:33;15.30;99.90
13976;DHT22;7062;49.792;9.946;2023-05-07T04:27:59;15.30;99.90
13976;DHT22;7062;49.792;9.946;2023-05-07T04:30:24;15.40;99.90
13976;DHT22;7062;49.792;9.946;2023-05-07T04:32:50;15.40;99.90
13976;DHT22;7062;49.792;9.946;2023-05-07T04:35:16;15.40;99.90
13976;DHT22;7062;49.792;9.946;2023-05-07T04:37:42;15.30;99.90
13976;DHT22;7062;49.792;9.946;2023-05-07T04:40:08;15.30;99.90
13976;DHT22;7062;49.792;9.946;2023-05-07T04:42:34;15.20;99.90
13976;DHT22;7062;49.792;9.946;2023-05-07T04:45:01;15.30;99.90
13976;DHT22;7062;49.792;9.946;2023-05-07T04:47:27;15.30;99.90
13976;DHT22;7062;49.792;9.946;2023-05-07T04:49:53;15.40;99.90
13976;DHT22;7062;49.792;9.946;2023-05-07T04:52:18;15.30;99.90
13976;DHT22;7062;49.792;9.946;2023-05-07T04:54:44;15.30;99.90
13976;DHT22;7062;49.792;9.946;2023-05-07T04:57:10;15.30;99.90
13976;DHT22;7062;49.792;9.946;2023-05-07T04:59:35;15.50;99.90
13976;DHT22;7062;49.792;9.946;2023-05-07T05:02:01;15.60;99.90
13976;DHT22;7062;49.792;9.946;2023-05-07T05:04:26;15.60;99.90
13976;DHT22;7062;49.792;9.946;2023-05-07T05:06:52;15.60;99.90
13976;DHT22;7062;49.792;9.946;2023-05-07T05:09:18;15.60;99.90
13976;DHT22;7062;49.792;9.946;2023-05-07T05:11:44;15.70;99.90
13976;DHT22;7062;49.792;9.946;2023-05-07T05:14:09;15.70;99.90
13976;DHT22;7062;49.792;9.946;2023-05-07T05:16:35;15.70;99.90
13976;DHT22;7062;49.792;9.946;2023-05-07T05:19:02;15.80;99.90
13976;DHT22;7062;49.792;9.946;2023-05-07T05:21:27;15.80;99.90
13976;DHT22;7062;49.792;9.946;2023-05-07T05:23:53;15.90;99.90
13976;DHT22;7062;49.792;9.946;2023-05-07T05:26:19;15.90;99.90
13976;DHT22;7062;49.792;9.946;2023-05-07T05:28:46;15.90;99.90
13976;DHT22;7062;49.792;9.946;2023-05-07T05:31:12;16.00;99.90
13976;DHT22;7062;49.792;9.946;2023-05-07T05:33:39;16.10;99.90
13976;DHT22;7062;49.792;9.946;2023-05-07T05:36:05;16.10;99.90
13976;DHT22;7062;49.792;9.946;2023-05-07T05:38:31;16.10;99.90
13976;DHT22;7062;49.792;9.946;2023-05-07T05:40:57;16.20;99.90
13976;DHT22;7062;49.792;9.946;2023-05-07T05:43:23;16.30;99.90
13976;DHT22;7062;49.792;9.946;2023-05-07T05:45:48;16.40;99.90
13976;DHT22;7062;49.792;9.946;2023-05-07T05:48:14;16.60;99.90
13976;DHT22;7062;49.792;9.946;2023-05-07T05:50:41;16.50;99.90
13976;DHT22;7062;49.792;9.946;2023-05-07T05:53:08;16.60;99.90
13976;DHT22;7062;49.792;9.946;2023-05-07T05:55:34;16.60;99.90
13976;DHT22;7062;49.792;9.946;2023-05-07T05:58:03;16.60;99.90
13976;DHT22;7062;49.792;9.946;2023-05-07T06:00:29;16.60;99.90
13976;DHT22;7062;49.792;9.946;2023-05-07T06:02:55;16.60;99.90
13976;DHT22;7062;49.792;9.946;2023-05-07T06:05:20;16.60;99.90
13976;DHT22;7062;49.792;9.946;2023-05-07T06:07:46;16.70;99.90
13976;DHT22;7062;49.792;9.946;2023-05-07T06:10:12;16.60;99.90
13976;DHT22;7062;49.792;9.946;2023-05-07T06:12:37;16.80;99.90
13976;DHT22;7062;49.792;9.946;2023-05-07T06:15:04;16.70;99.90
13976;DHT22;7062;49.792;9.946;2023-05-07T06:17:29;16.80;99.90
13976;DHT22;7062;49.792;9.946;2023-05-07T06:19:55;16.90;99.90
13976;DHT22;7062;49.792;9.946;2023-05-07T06:22:21;16.90;99.90
13976;DHT22;7062;49.792;9.946;2023-05-07T06:24:47;17.00;99.90
13976;DHT22;7062;49.792;9.946;2023-05-07T06:27:12;17.10;99.90
13976;DHT22;7062;49.792;9.946;2023-05-07T06:29:38;17.10;99.90
13976;DHT22;7062;49.792;9.946;2023-05-07T06:32:11;17.10;99.90
13976;DHT22;7062;49.792;9.946;2023-05-07T06:34:37;17.30;99.90
13976;DHT22;7062;49.792;9.946;2023-05-07T06:37:03;17.30;99.90
13976;DHT22;7062;49.792;9.946;2023-05-07T06:39:29;17.40;99.90
13976;DHT22;7062;49.792;9.946;2023-05-07T06:41:54;17.50;99.90
13976;DHT22;7062;49.792;9.946;2023-05-07T06:44:20;17.70;99.90
13976;DHT22;7062;49.792;9.946;2023-05-07T06:46:46;17.80;99.90
13976;DHT22;7062;49.792;9.946;2023-05-07T06:49:14;17.90;99.90
13976;DHT22;7062;49.792;9.946;2023-05-07T06:51:40;18.00;99.90
13976;DHT22;7062;49.792;9.946;2023-05-07T06:54:06;18.20;99.90
13976;DHT22;7062;49.792;9.946;2023-05-07T06:56:33;18.20;99.90
13976;DHT22;7062;49.792;9.946;2023-05-07T06:59:00;18.30;99.90
13976;DHT22;7062;49.792;9.946;2023-05-07T07:01:26;18.20;99.90
13976;DHT22;7062;49.792;9.946;2023-05-07T07:03:51;18.20;99.90
13976;DHT22;7062;49.792;9.946;2023-05-07T07:06:17;18.10;99.90
13976;DHT22;7062;49.792;9.946;2023-05-07T07:08:43;18.20;99.90
13976;DHT22;7062;49.792;9.946;2023-05-07T07:11:09;18.30;99.90
13976;DHT22;7062;49.792;9.946;2023-05-07T07:13:35;18.40;99.90
13976;DHT22;7062;49.792;9.946;2023-05-07T07:16:01;18.30;99.90
13976;DHT22;7062;49.792;9.946;2023-05-07T07:18:27;18.10;99.90
13976;DHT22;7062;49.792;9.946;2023-05-07T07:20:53;18.10;99.90
13976;DHT22;7062;49.792;9.946;2023-05-07T07:23:18;18.30;99.90
13976;DHT22;7062;49.792;9.946;2023-05-07T07:25:44;18.40;99.90
13976;DHT22;7062;49.792;9.946;2023-05-07T07:28:10;18.70;99.90
13976;DHT22;7062;49.792;9.946;2023-05-07T07:30:36;18.70;99.90
13976;DHT22;7062;49.792;9.946;2023-05-07T07:33:02;18.90;99.90
13976;DHT22;7062;49.792;9.946;2023-05-07T07:35:32;19.00;99.90
13976;DHT22;7062;49.792;9.946;2023-05-07T07:37:58;19.10;99.90
13976;DHT22;7062;49.792;9.946;2023-05-07T07:40:24;19.20;99.90
13976;DHT22;7062;49.792;9.946;2023-05-07T07:42:53;19.30;99.90
13976;DHT22;7062;49.792;9.946;2023-05-07T07:45:19;19.40;99.90
13976;DHT22;7062;49.792;9.946;2023-05-07T07:47:45;19.60;99.90
13976;DHT22;7062;49.792;9.946;2023-05-07T07:50:11;19.80;99.90
13976;DHT22;7062;49.792;9.946;2023-05-07T07:52:36;19.70;99.90
13976;DHT22;7062;49.792;9.946;2023-05-07T07:55:02;19.90;99.90
13976;DHT22;7062;49.792;9.946;2023-05-07T07:57:28;19.90;99.90
13976;DHT22;7062;49.792;9.946;2023-05-07T07:59:54;20.10;99.90
13976;DHT22;7062;49.792;9.946;2023-05-07T08:02:19;20.00;99.90
13976;DHT22;7062;49.792;9.946;2023-05-07T08:04:46;20.10;99.90
13976;DHT22;7062;49.792;9.946;2023-05-07T08:07:11;20.20;99.90
13976;DHT22;7062;49.792;9.946;2023-05-07T08:09:38;20.50;99.90
13976;DHT22;7062;49.792;9.946;2023-05-07T08:12:04;20.60;99.90
13976;DHT22;7062;49.792;9.946;2023-05-07T08:14:30;20.50;99.90
13976;DHT22;7062;49.792;9.946;2023-05-07T08:16:56;20.50;99.90
13976;DHT22;7062;49.792;9.946;2023-05-07T08:19:22;20.60;99.90
13976;DHT22;7062;49.792;9.946;2023-05-07T08:21:48;20.50;99.90
13976;DHT22;7062;49.792;9.946;2023-05-07T08:24:14;20.30;99.90
13976;DHT22;7062;49.792;9.946;2023-05-07T08:26:40;20.40;99.90
13976;DHT22;7062;49.792;9.946;2023-05-07T08:29:06;20.30;99.90
13976;DHT22;7062;49.792;9.946;2023-05-07T08:31:32;20.30;99.90
13976;DHT22;7062;49.792;9.946;2023-05-07T08:33:59;20.30;99.90
13976;DHT22;7062;49.792;9.946;2023-05-07T08:36:25;20.40;99.90
13976;DHT22;7062;49.792;9.946;2023-05-07T08:38:51;20.30;99.90
13976;DHT22;7062;49.792;9.946;2023-05-07T08:41:17;20.40;99.90
13976;DHT22;7062;49.792;9.946;2023-05-07T08:43:47;20.40;99.90
13976;DHT22;7062;49.792;9.946;2023-05-07T08:46:18;20.60;99.90
13976;DHT22;7062;49.792;9.946;2023-05-07T08:48:44;20.70;99.90
13976;DHT22;7062;49.792;9.946;2023-05-07T08:51:15;20.60;99.90
13976;DHT22;7062;49.792;9.946;2023-05-07T08:53:41;20.80;99.90
13976;DHT22;7062;49.792;9.946;2023-05-07T08:56:08;20.90;99.90
13976;DHT22;7062;49.792;9.946;2023-05-07T08:58:34;21.30;99.90
13976;DHT22;7062;49.792;9.946;2023-05-07T09:01:07;21.50;99.90
13976;DHT22;7062;49.792;9.946;2023-05-07T09:03:32;21.60;99.90
13976;DHT22;7062;49.792;9.946;2023-05-07T09:05:58;21.50;99.90
13976;DHT22;7062;49.792;9.946;2023-05-07T09:08:25;21.60;99.90
13976;DHT22;7062;49.792;9.946;2023-05-07T09:10:52;21.50;99.90
13976;DHT22;7062;49.792;9.946;2023-05-07T09:13:17;21.60;99.90
13976;DHT22;7062;49.792;9.946;2023-05-07T09:15:43;21.70;99.90
13976;DHT22;7062;49.792;9.946;2023-05-07T09:18:09;21.50;99.90
13976;DHT22;7062;49.792;9.946;2023-05-07T09:20:37;21.40;99.90
13976;DHT22;7062;49.792;9.946;2023-05-07T09:23:02;21.30;99.90
13976;DHT22;7062;49.792;9.946;2023-05-07T09:25:33;21.90;99.90
13976;DHT22;7062;49.792;9.946;2023-05-07T09:28:03;22.20;99.90
13976;DHT22;7062;49.792;9.946;2023-05-07T09:30:32;22.20;99.90
13976;DHT22;7062;49.792;9.946;2023-05-07T09:32:59;22.30;99.90
13976;DHT22;7062;49.792;9.946;2023-05-07T09:35:26;22.70;99.90
13976;DHT22;7062;49.792;9.946;2023-05-07T09:37:58;23.00;99.90
13976;DHT22;7062;49.792;9.946;2023-05-07T09:40:26;23.80;99.90
13976;DHT22;7062;49.792;9.946;2023-05-07T09:42:52;24.20;99.90
13976;DHT22;7062;49.792;9.946;2023-05-07T09:45:28;24.70;99.90
13976;DHT22;7062;49.792;9.946;2023-05-07T09:47:58;25.60;99.90
13976;DHT22;7062;49.792;9.946;2023-05-07T09:50:30;25.80;99.90
13976;DHT22;7062;49.792;9.946;2023-05-07T09:52:57;25.50;99.90
13976;DHT22;7062;49.792;9.946;2023-05-07T09:55:23;25.70;99.90
13976;DHT22;7062;49.792;9.946;2023-05-07T09:57:51;25.90;99.90
13976;DHT22;7062;49.792;9.946;2023-05-07T10:00:19;26.40;99.90
13976;DHT22;7062;49.792;9.946;2023-05-07T10:02:50;26.90;99.90
13976;DHT22;7062;49.792;9.946;2023-05-07T10:05:18;27.90;99.60
13976;DHT22;7062;49.792;9.946;2023-05-07T10:07:46;29.00;97.90
13976;DHT22;7062;49.792;9.946;2023-05-07T10:10:12;30.80;95.60
13976;DHT22;7062;49.792;9.946;2023-05-07T10:12:38;31.90;93.50
13976;DHT22;7062;49.792;9.946;2023-05-07T10:15:09;33.20;91.50
13976;DHT22;7062;49.792;9.946;2023-05-07T10:17:39;34.00;89.60
13976;DHT22;7062;49.792;9.946;2023-05-07T10:20:06;34.50;86.50
13976;DHT22;7062;49.792;9.946;2023-05-07T10:22:48;34.40;84.00
13976;DHT22;7062;49.792;9.946;2023-05-07T10:25:26;34.60;82.20
13976;DHT22;7062;49.792;9.946;2023-05-07T10:27:55;35.50;79.40
13976;DHT22;7062;49.792;9.946;2023-05-07T10:33:05;37.00;75.40
13976;DHT22;7062;49.792;9.946;2023-05-07T10:35:38;37.20;73.70
13976;DHT22;7062;49.792;9.946;2023-05-07T10:38:04;36.90;72.10
13976;DHT22;7062;49.792;9.946;2023-05-07T10:40:31;35.30;73.30
13976;DHT22;7062;49.792;9.946;2023-05-07T10:43:02;34.70;74.20
13976;DHT22;7062;49.792;9.946;2023-05-07T10:45:29;33.50;75.90
13976;DHT22;7062;49.792;9.946;2023-05-07T10:48:14;32.80;77.70
13976;DHT22;7062;49.792;9.946;2023-05-07T10:50:41;32.30;78.10
13976;DHT22;7062;49.792;9.946;2023-05-07T10:55:48;31.10;80.60
13976;DHT22;7062;49.792;9.946;2023-05-07T10:58:27;31.40;80.20
13976;DHT22;7062;49.792;9.946;2023-05-07T11:01:02;31.90;79.20
13976;DHT22;7062;49.792;9.946;2023-05-07T11:03:29;31.50;79.80
13976;DHT22;7062;49.792;9.946;2023-05-07T11:06:12;31.20;79.80
13976;DHT22;7062;49.792;9.946;2023-05-07T11:09:04;31.90;79.10
13976;DHT22;7062;49.792;9.946;2023-05-07T11:11:47;32.60;77.20
13976;DHT22;7062;49.792;9.946;2023-05-07T11:14:14;32.30;78.10
13976;DHT22;7062;49.792;9.946;2023-05-07T11:16:41;31.80;78.70
13976;DHT22;7062;49.792;9.946;2023-05-07T11:19:07;30.90;79.20
13976;DHT22;7062;49.792;9.946;2023-05-07T11:23:59;29.80;81.70
13976;DHT22;7062;49.792;9.946;2023-05-07T11:26:25;30.10;81.40
13976;DHT22;7062;49.792;9.946;2023-05-07T11:28:52;31.40;79.40
13976;DHT22;7062;49.792;9.946;2023-05-07T11:31:23;31.60;78.20
13976;DHT22;7062;49.792;9.946;2023-05-07T11:33:50;31.50;78.40
13976;DHT22;7062;49.792;9.946;2023-05-07T11:36:16;31.40;79.20
13976;DHT22;7062;49.792;9.946;2023-05-07T11:38:42;32.40;78.20
13976;DHT22;7062;49.792;9.946;2023-05-07T11:41:07;33.90;76.30
13976;DHT22;7062;49.792;9.946;2023-05-07T11:43:33;35.20;74.50
13976;DHT22;7062;49.792;9.946;2023-05-07T11:46:11;36.30;72.40
13976;DHT22;7062;49.792;9.946;2023-05-07T11:48:37;36.80;70.80
13976;DHT22;7062;49.792;9.946;2023-05-07T11:51:04;37.70;69.60
13976;DHT22;7062;49.792;9.946;2023-05-07T11:53:41;38.60;67.40
13976;DHT22;7062;49.792;9.946;2023-05-07T11:56:11;39.30;65.00
13976;DHT22;7062;49.792;9.946;2023-05-07T11:58:37;40.30;63.40
13976;DHT22;7062;49.792;9.946;2023-05-07T12:01:03;40.00;62.50
13976;DHT22;7062;49.792;9.946;2023-05-07T12:03:29;39.10;62.20
13976;DHT22;7062;49.792;9.946;2023-05-07T12:05:55;38.70;63.00
13976;DHT22;7062;49.792;9.946;2023-05-07T12:08:21;37.90;63.70
13976;DHT22;7062;49.792;9.946;2023-05-07T12:10:49;37.60;63.00
13976;DHT22;7062;49.792;9.946;2023-05-07T12:13:19;37.20;63.80
13976;DHT22;7062;49.792;9.946;2023-05-07T12:15:45;38.20;63.30
13976;DHT22;7062;49.792;9.946;2023-05-07T12:18:12;39.50;61.20
13976;DHT22;7062;49.792;9.946;2023-05-07T12:20:39;40.30;59.70
13976;DHT22;7062;49.792;9.946;2023-05-07T12:23:05;41.10;58.30
13976;DHT22;7062;49.792;9.946;2023-05-07T12:25:38;41.40;58.20
13976;DHT22;7062;49.792;9.946;2023-05-07T12:28:05;40.50;57.20
13976;DHT22;7062;49.792;9.946;2023-05-07T12:30:40;39.60;57.70
13976;DHT22;7062;49.792;9.946;2023-05-07T12:33:06;38.30;58.50
13976;DHT22;7062;49.792;9.946;2023-05-07T12:35:39;36.40;60.40
13976;DHT22;7062;49.792;9.946;2023-05-07T12:38:09;37.00;60.60
13976;DHT22;7062;49.792;9.946;2023-05-07T12:40:47;37.60;59.90
13976;DHT22;7062;49.792;9.946;2023-05-07T12:43:21;38.40;59.10
13976;DHT22;7062;49.792;9.946;2023-05-07T12:45:49;39.20;58.30
13976;DHT22;7062;49.792;9.946;2023-05-07T12:48:14;39.90;57.00
13976;DHT22;7062;49.792;9.946;2023-05-07T12:50:40;40.00;56.00
13976;DHT22;7062;49.792;9.946;2023-05-07T12:53:07;40.30;55.20
13976;DHT22;7062;49.792;9.946;2023-05-07T12:55:47;41.00;54.00
13976;DHT22;7062;49.792;9.946;2023-05-07T12:58:30;41.20;54.00
13976;DHT22;7062;49.792;9.946;2023-05-07T13:00:58;41.50;53.30
13976;DHT22;7062;49.792;9.946;2023-05-07T13:03:29;39.70;54.10
13976;DHT22;7062;49.792;9.946;2023-05-07T13:06:01;38.90;55.00
13976;DHT22;7062;49.792;9.946;2023-05-07T13:08:30;38.80;55.00
13976;DHT22;7062;49.792;9.946;2023-05-07T13:11:00;39.00;55.60
13976;DHT22;7062;49.792;9.946;2023-05-07T13:13:33;39.90;54.30
13976;DHT22;7062;49.792;9.946;2023-05-07T13:16:00;40.60;53.30
13976;DHT22;7062;49.792;9.946;2023-05-07T13:18:26;40.80;52.60
13976;DHT22;7062;49.792;9.946;2023-05-07T13:20:52;40.60;52.40
13976;DHT22;7062;49.792;9.946;2023-05-07T13:23:18;40.50;52.30
13976;DHT22;7062;49.792;9.946;2023-05-07T13:25:44;40.60;52.00
13976;DHT22;7062;49.792;9.946;2023-05-07T13:28:09;39.80;52.50
13976;DHT22;7062;49.792;9.946;2023-05-07T13:30:35;38.90;53.10
13976;DHT22;7062;49.792;9.946;2023-05-07T13:33:01;39.70;52.10
13976;DHT22;7062;49.792;9.946;2023-05-07T13:35:27;40.50;51.10
13976;DHT22;7062;49.792;9.946;2023-05-07T13:37:52;41.20;51.00
13976;DHT22;7062;49.792;9.946;2023-05-07T13:40:20;40.80;50.30
13976;DHT22;7062;49.792;9.946;2023-05-07T13:42:46;38.90;51.90
13976;DHT22;7062;49.792;9.946;2023-05-07T13:45:11;36.50;53.70
13976;DHT22;7062;49.792;9.946;2023-05-07T13:47:40;34.50;55.70
13976;DHT22;7062;49.792;9.946;2023-05-07T13:50:07;33.20;57.50
13976;DHT22;7062;49.792;9.946;2023-05-07T13:52:32;32.70;58.90
13976;DHT22;7062;49.792;9.946;2023-05-07T13:54:58;32.20;59.70
13976;DHT22;7062;49.792;9.946;2023-05-07T13:57:24;32.30;60.50
13976;DHT22;7062;49.792;9.946;2023-05-07T13:59:50;33.40;58.80
13976;DHT22;7062;49.792;9.946;2023-05-07T14:02:15;35.30;56.90
13976;DHT22;7062;49.792;9.946;2023-05-07T14:04:41;36.70;55.30
13976;DHT22;7062;49.792;9.946;2023-05-07T14:07:07;37.60;53.60
13976;DHT22;7062;49.792;9.946;2023-05-07T14:09:32;37.70;53.70
13976;DHT22;7062;49.792;9.946;2023-05-07T14:11:59;38.00;54.00
13976;DHT22;7062;49.792;9.946;2023-05-07T14:14:24;38.80;52.60
13976;DHT22;7062;49.792;9.946;2023-05-07T14:16:50;38.90;52.70
13976;DHT22;7062;49.792;9.946;2023-05-07T14:19:16;39.80;52.10
13976;DHT22;7062;49.792;9.946;2023-05-07T14:21:41;40.00;52.00
13976;DHT22;7062;49.792;9.946;2023-05-07T14:24:07;40.60;51.20
13976;DHT22;7062;49.792;9.946;2023-05-07T14:26:34;40.30;50.70
13976;DHT22;7062;49.792;9.946;2023-05-07T14:29:00;41.00;50.10
13976;DHT22;7062;49.792;9.946;2023-05-07T14:31:26;41.20;49.60
13976;DHT22;7062;49.792;9.946;2023-05-07T14:33:51;41.10;49.10
13976;DHT22;7062;49.792;9.946;2023-05-07T14:36:18;40.70;49.50
13976;DHT22;7062;49.792;9.946;2023-05-07T14:38:48;40.30;49.80
13976;DHT22;7062;49.792;9.946;2023-05-07T14:41:13;40.10;50.10
13976;DHT22;7062;49.792;9.946;2023-05-07T14:43:40;40.30;50.30
13976;DHT22;7062;49.792;9.946;2023-05-07T14:46:05;39.90;50.60
13976;DHT22;7062;49.792;9.946;2023-05-07T14:48:31;40.00;51.10
13976;DHT22;7062;49.792;9.946;2023-05-07T14:50:56;40.10;51.50
13976;DHT22;7062;49.792;9.946;2023-05-07T14:53:22;38.80;52.60
13976;DHT22;7062;49.792;9.946;2023-05-07T14:55:48;37.20;54.50
13976;DHT22;7062;49.792;9.946;2023-05-07T14:58:14;35.50;56.20
13976;DHT22;7062;49.792;9.946;2023-05-07T15:00:40;33.60;58.30
13976;DHT22;7062;49.792;9.946;2023-05-07T15:03:07;32.10;60.20
13976;DHT22;7062;49.792;9.946;2023-05-07T15:05:33;30.90;62.50
13976;DHT22;7062;49.792;9.946;2023-05-07T15:07:59;29.60;64.10
13976;DHT22;7062;49.792;9.946;2023-05-07T15:10:25;28.70;66.10
13976;DHT22;7062;49.792;9.946;2023-05-07T15:12:51;28.10;67.30
13976;DHT22;7062;49.792;9.946;2023-05-07T15:15:17;27.60;68.40
13976;DHT22;7062;49.792;9.946;2023-05-07T15:17:42;27.30;69.60
13976;DHT22;7062;49.792;9.946;2023-05-07T15:20:08;27.00;70.50
13976;DHT22;7062;49.792;9.946;2023-05-07T15:22:35;26.50;71.30
13976;DHT22;7062;49.792;9.946;2023-05-07T15:25:02;26.30;71.90
13976;DHT22;7062;49.792;9.946;2023-05-07T15:27:29;26.20;72.40
13976;DHT22;7062;49.792;9.946;2023-05-07T15:29:56;26.00;73.30
13976;DHT22;7062;49.792;9.946;2023-05-07T15:32:21;25.90;73.50
13976;DHT22;7062;49.792;9.946;2023-05-07T15:34:47;25.90;73.60
13976;DHT22;7062;49.792;9.946;2023-05-07T15:37:13;25.90;73.60
13976;DHT22;7062;49.792;9.946;2023-05-07T15:39:38;25.70;73.90
13976;DHT22;7062;49.792;9.946;2023-05-07T15:42:04;25.60;74.80
13976;DHT22;7062;49.792;9.946;2023-05-07T15:44:30;25.50;75.60
13976;DHT22;7062;49.792;9.946;2023-05-07T15:46:59;25.20;76.20
13976;DHT22;7062;49.792;9.946;2023-05-07T15:49:25;25.10;76.80
13976;DHT22;7062;49.792;9.946;2023-05-07T15:51:50;25.10;76.70